Time;durP1;ratioP1;P1;durP2;ratioP2;P2;SDS_P1;SDS_P2;PMS_P1;PMS_P2;Temp;Humidity;BMP_temperature;BMP_pressure;BME280_temperature;BME280_humidity;BME280_pressure;Samples;Min_cycle;Max_cycle;Signal;HPM_P1;HPM_P2
2021/05/13 00:01:38;;;;;;;;;;;;;;;12.87;79.18;94649.14;1709247;84;20521;-71
2021/05/13 00:04:04;;;;;;;;;;;;;;;12.94;78.33;94648.43;1709321;84;20157;-71
2021/05/13 00:06:30;;;;;;;;;;;;;;;12.97;77.80;94649.62;1709389;84;20149;-71
2021/05/13 00:08:57;;;;;;;;;;;;;;;12.98;77.45;94648.23;1709363;84;20173;-71
2021/05/13 00:11:33;;;;;;;;;;;;;;;12.98;77.56;94646.91;1709354;84;20526;-71
2021/05/13 00:13:56;;;;;;;;;;;;;;;13.01;77.18;94645.92;1707936;84;20192;-71
2021/05/13 00:16:28;;;;;;;;;;;;;;;13.05;77.10;94649.28;1709434;84;20161;-71
2021/05/13 00:18:51;;;;;;;;;;;;;;;13.03;77.29;94641.86;1707294;84;20136;-70
2021/05/13 00:21:17;;;;;;;;;;;;;;;13.02;78.19;94644.13;1701402;83;20493;-71
2021/05/13 00:23:43;;;;;;;;;;;;;;;13.02;78.41;94650.75;1701420;84;20168;-71
2021/05/13 00:26:10;;;;;;;;;;;;;;;13.03;78.95;94646.72;1701464;84;20164;-71
2021/05/13 00:28:36;;;;;;;;;;;;;;;12.97;79.58;94646.50;1701627;84;20176;-71
2021/05/13 00:31:02;;;;;;;;;;;;;;;12.96;78.70;94649.23;1701511;84;20147;-71
2021/05/13 00:33:28;;;;;;;;;;;;;;;12.95;79.38;94654.11;1701195;84;20164;-71
2021/05/13 00:35:54;;;;;;;;;;;;;;;12.97;79.33;94652.27;1701526;83;20155;-70
2021/05/13 00:38:21;;;;;;;;;;;;;;;12.98;79.17;94654.86;1701617;84;20164;-71
2021/05/13 00:40:47;;;;;;;;;;;;;;;12.93;78.78;94652.88;1701244;84;20516;-70
2021/05/13 00:43:13;;;;;;;;;;;;;;;12.98;78.64;94660.16;1701538;84;20156;-71
2021/05/13 00:45:41;;;;;;;;;;;;;;;13.03;79.04;94655.98;1701641;84;20152;-70
2021/05/13 00:48:14;;;;;;;;;;;;;;;13.00;78.52;94652.13;1701351;84;20556;-71
2021/05/13 00:50:36;;;;;;;;;;;;;;;12.94;78.26;94648.43;1703520;84;20513;-71
2021/05/13 00:53:07;;;;;;;;;;;;;;;12.92;78.20;94651.59;1714882;84;20149;-71
2021/05/13 00:55:34;;;;;;;;;;;;;;;12.89;77.98;94647.30;1686416;85;20171;-70
2021/05/13 00:58:01;;;;;;;;;;;;;;;12.89;77.15;94648.63;1701428;84;20141;-71
2021/05/13 01:03:12;;;;;;;;;;;;;;;12.80;77.31;94646.83;1701315;84;20169;-71
2021/05/13 01:05:39;;;;;;;;;;;;;;;12.73;77.64;94637.83;1701630;84;20130;-71
2021/05/13 01:08:07;;;;;;;;;;;;;;;12.71;77.81;94644.97;1701467;84;20509;-71
2021/05/13 01:10:34;;;;;;;;;;;;;;;12.67;77.87;94642.05;1701500;84;20160;-70
2021/05/13 01:13:05;;;;;;;;;;;;;;;12.67;78.55;94634.58;1701569;84;20149;-71
2021/05/13 01:16:26;;;;;;;;;;;;;;;12.64;78.66;94628.09;1700824;84;20201;-71
2021/05/13 01:18:16;;;;;;;;;;;;;;;12.56;79.05;94633.70;1688644;84;20138;-71
2021/05/13 01:20:38;;;;;;;;;;;;;;;12.49;79.04;94638.38;1716706;84;20172;-71
2021/05/13 01:23:07;;;;;;;;;;;;;;;12.46;79.59;94637.66;1739989;82;20480;-71
2021/05/13 01:25:45;;;;;;;;;;;;;;;12.49;79.42;94641.50;1702431;84;20152;-71
2021/05/13 01:28:12;;;;;;;;;;;;;;;12.48;79.55;94638.00;1731647;83;20231;-71
2021/05/13 01:30:38;;;;;;;;;;;;;;;12.51;78.73;94639.66;1731661;83;20140;-71
2021/05/13 01:33:05;;;;;;;;;;;;;;;12.50;79.28;94632.19;1731390;83;20168;-71
2021/05/13 01:35:31;;;;;;;;;;;;;;;12.49;79.17;94630.91;1731784;83;20148;-71
2021/05/13 01:38:04;;;;;;;;;;;;;;;12.49;78.75;94633.09;1731473;83;20180;-70
2021/05/13 01:40:30;;;;;;;;;;;;;;;12.45;78.73;94624.91;1725550;83;20508;-71
2021/05/13 01:42:57;;;;;;;;;;;;;;;12.41;78.72;94621.97;1731609;83;20254;-71
2021/05/13 01:45:23;;;;;;;;;;;;;;;12.38;78.65;94627.86;1731386;83;20485;-71
2021/05/13 01:47:50;;;;;;;;;;;;;;;12.33;79.21;94632.87;1731598;83;20167;-71
2021/05/13 01:50:16;;;;;;;;;;;;;;;12.28;79.23;94626.91;1730810;83;20469;-71
2021/05/13 01:52:43;;;;;;;;;;;;;;;12.28;78.94;94632.66;1727952;83;20184;-71
2021/05/13 01:55:11;;;;;;;;;;;;;;;12.27;79.20;94630.48;1727916;83;20188;-71
2021/05/13 01:57:37;;;;;;;;;;;;;;;12.26;79.11;94624.78;1727861;83;20159;-71
2021/05/13 02:00:04;;;;;;;;;;;;;;;12.29;78.88;94621.15;1727929;83;20143;-71
2021/05/13 02:02:30;;;;;;;;;;;;;;;12.30;78.91;94610.98;1727753;83;20156;-71
2021/05/13 02:04:56;;;;;;;;;;;;;;;12.30;78.74;94614.95;1727672;83;20191;-70
2021/05/13 02:07:23;;;;;;;;;;;;;;;12.30;78.62;94615.80;1728022;83;20179;-71
2021/05/13 02:09:49;;;;;;;;;;;;;;;12.30;78.61;94614.95;1727943;83;20512;-71
2021/05/13 02:12:15;;;;;;;;;;;;;;;12.28;78.78;94618.12;1727860;83;20174;-71
2021/05/13 02:14:42;;;;;;;;;;;;;;;12.27;78.80;94614.62;1727944;83;20465;-70
2021/05/13 02:17:08;;;;;;;;;;;;;;;12.25;78.75;94616.45;1701336;83;20168;-71
2021/05/13 02:19:34;;;;;;;;;;;;;;;12.27;78.78;94612.41;1718011;83;20157;-70
2021/05/13 02:22:00;;;;;;;;;;;;;;;12.25;78.60;94616.45;1708178;84;20165;-71
2021/05/13 02:24:26;;;;;;;;;;;;;;;12.17;79.43;94613.27;1707847;84;20613;-71
2021/05/13 02:26:53;;;;;;;;;;;;;;;12.20;79.64;94615.78;1707766;84;20134;-71
2021/05/13 02:29:19;;;;;;;;;;;;;;;12.19;79.21;94618.48;1707899;84;20233;-70
2021/05/13 02:31:45;;;;;;;;;;;;;;;12.13;79.28;94624.41;1707982;84;20194;-71
2021/05/13 02:34:12;;;;;;;;;;;;;;;12.09;79.48;94616.19;1707848;84;20165;-70
2021/05/13 02:36:38;;;;;;;;;;;;;;;12.09;79.55;94616.66;1708004;84;20152;-70
2021/05/13 02:39:05;;;;;;;;;;;;;;;12.08;79.35;94618.92;1708003;84;20149;-70
2021/05/13 02:41:32;;;;;;;;;;;;;;;12.11;79.83;94616.14;1707654;84;20503;-70
2021/05/13 02:43:58;;;;;;;;;;;;;;;12.03;80.71;94615.13;1708118;84;20174;-71
2021/05/13 02:46:24;;;;;;;;;;;;;;;12.05;80.51;94625.19;1707747;84;20471;-71
2021/05/13 02:48:51;;;;;;;;;;;;;;;12.05;80.60;94625.66;1707891;84;20173;-70
2021/05/13 02:51:17;;;;;;;;;;;;;;;12.11;80.80;94625.40;1701094;84;20162;-71
2021/05/13 02:53:43;;;;;;;;;;;;;;;12.16;80.10;94623.90;1694665;85;20150;-71
2021/05/13 02:56:10;;;;;;;;;;;;;;;12.17;79.83;94618.56;1694710;84;20147;-70
2021/05/13 02:58:36;;;;;;;;;;;;;;;12.11;80.54;94619.64;1694738;85;20170;-71
2021/05/13 03:01:23;;;;;;;;;;;;;;;12.10;80.31;94621.05;1694635;85;20151;-71
2021/05/13 03:03:40;;;;;;;;;;;;;;;12.13;80.48;94605.05;1692770;85;20221;-71
2021/05/13 03:06:06;;;;;;;;;;;;;;;12.21;80.09;94612.20;1694780;85;20154;-71
2021/05/13 03:08:32;;;;;;;;;;;;;;;12.29;79.68;94623.33;1694721;85;20225;-70
2021/05/13 03:10:59;;;;;;;;;;;;;;;12.23;80.01;94620.94;1694875;85;20182;-70
2021/05/13 03:13:27;;;;;;;;;;;;;;;12.19;79.95;94611.40;1694777;85;20193;-71
2021/05/13 03:15:54;;;;;;;;;;;;;;;12.24;79.55;94614.72;1694795;85;20170;-70
2021/05/13 03:18:26;;;;;;;;;;;;;;;12.17;80.85;94611.06;1694661;85;20230;-70
2021/05/13 03:20:57;;;;;;;;;;;;;;;12.11;81.05;94605.57;1723348;83;20469;-70
2021/05/13 03:23:26;;;;;;;;;;;;;;;12.10;80.22;94611.79;1723218;83;20164;-71
2021/05/13 03:25:56;;;;;;;;;;;;;;;12.05;80.60;94615.94;1722876;83;20168;-70
2021/05/13 03:28:16;;;;;;;;;;;;;;;11.98;80.32;94614.92;1722320;83;20180;-71
2021/05/13 03:30:45;;;;;;;;;;;;;;;12.00;80.54;94618.38;1723560;83;20164;-70
2021/05/13 03:33:12;;;;;;;;;;;;;;;12.07;80.43;94612.78;1723504;83;20159;-71
2021/05/13 03:35:39;;;;;;;;;;;;;;;12.10;80.76;94615.76;1723435;83;20508;-70
2021/05/13 03:38:07;;;;;;;;;;;;;;;12.08;80.17;94616.27;1723593;83;20199;-70
2021/05/13 03:40:34;;;;;;;;;;;;;;;12.07;80.73;94611.45;1723533;83;20179;-70
2021/05/13 03:43:01;;;;;;;;;;;;;;;12.11;80.61;94614.82;1723328;83;20152;-70
2021/05/13 03:45:28;;;;;;;;;;;;;;;12.12;80.57;94612.59;1723537;83;20156;-70
2021/05/13 03:47:55;;;;;;;;;;;;;;;12.13;80.67;94610.34;1723339;83;20207;-70
2021/05/13 03:50:21;;;;;;;;;;;;;;;12.18;80.20;94601.76;1723465;83;20128;-68
2021/05/13 03:52:48;;;;;;;;;;;;;;;12.25;80.22;94615.14;1723313;83;20140;-70
2021/05/13 03:55:14;;;;;;;;;;;;;;;12.26;80.14;94608.05;1723481;83;20156;-69
2021/05/13 03:57:41;;;;;;;;;;;;;;;12.28;80.10;94613.68;1723413;83;20159;-71
2021/05/13 04:00:11;;;;;;;;;;;;;;;12.20;81.06;94609.17;1723412;83;20485;-71
2021/05/13 04:02:37;;;;;;;;;;;;;;;12.11;81.62;94613.03;1723462;83;20184;-68
2021/05/13 04:05:05;;;;;;;;;;;;;;;12.13;81.52;94614.30;1723355;83;20513;-71
2021/05/13 04:07:34;;;;;;;;;;;;;;;12.13;81.50;94615.62;1723728;83;20228;-71
2021/05/13 04:10:02;;;;;;;;;;;;;;;12.14;81.39;94598.83;1723564;83;20160;-71
2021/05/13 04:12:29;;;;;;;;;;;;;;;12.20;80.97;94603.03;1723543;83;20148;-71
2021/05/13 04:14:57;;;;;;;;;;;;;;;12.23;80.65;94596.28;1723640;83;20255;-71
2021/05/13 04:17:23;;;;;;;;;;;;;;;12.19;81.64;94593.36;1723648;83;20172;-71
2021/05/13 04:19:50;;;;;;;;;;;;;;;12.24;81.40;94601.49;1723476;83;20179;-71
2021/05/13 04:22:16;;;;;;;;;;;;;;;12.20;81.88;94605.20;1723603;83;20172;-71
2021/05/13 04:24:43;;;;;;;;;;;;;;;12.31;81.51;94602.11;1723619;83;20180;-71
2021/05/13 04:27:09;;;;;;;;;;;;;;;12.29;81.88;94598.66;1723736;83;20148;-71
2021/05/13 04:29:36;;;;;;;;;;;;;;;12.28;81.88;94599.13;1723722;83;20180;-71
2021/05/13 04:32:02;;;;;;;;;;;;;;;12.32;81.92;94599.42;1723715;83;20140;-71
2021/05/13 04:34:28;;;;;;;;;;;;;;;12.43;82.64;94600.75;1723504;83;20477;-71
2021/05/13 04:36:55;;;;;;;;;;;;;;;12.48;82.33;94598.31;1723600;83;20145;-72
2021/05/13 04:39:21;;;;;;;;;;;;;;;12.48;82.15;94603.60;1723663;83;20216;-71
2021/05/13 04:41:47;;;;;;;;;;;;;;;12.53;82.44;94615.32;1723612;83;20144;-71
2021/05/13 04:44:14;;;;;;;;;;;;;;;12.61;82.43;94615.85;1723581;83;20192;-71
2021/05/13 04:46:40;;;;;;;;;;;;;;;12.69;82.59;94607.59;1723543;83;20224;-71
2021/05/13 04:51:38;;;;;;;;;;;;;;;12.83;81.72;94615.80;1723647;83;20140;-69
2021/05/13 04:54:05;;;;;;;;;;;;;;;12.90;81.70;94623.00;1703575;83;20189;-67
2021/05/13 04:56:32;;;;;;;;;;;;;;;13.02;81.29;94632.21;1701102;83;20233;-65
2021/05/13 04:58:58;;;;;;;;;;;;;;;13.12;80.90;94618.96;1696358;83;20211;-65
2021/05/13 05:01:26;;;;;;;;;;;;;;;13.18;79.79;94616.06;1706951;83;20227;-66
2021/05/13 05:03:52;;;;;;;;;;;;;;;13.27;79.77;94616.98;1677572;84;20156;-69
2021/05/13 05:06:18;;;;;;;;;;;;;;;13.37;79.34;94612.99;1685545;83;20191;-69
2021/05/13 05:08:45;;;;;;;;;;;;;;;13.46;78.90;94612.20;1727226;83;20151;-81
2021/05/13 05:11:12;;;;;;;;;;;;;;;13.50;78.78;94605.34;1727087;83;20176;-71
2021/05/13 05:13:38;;;;;;;;;;;;;;;13.58;78.66;94612.94;1727106;83;20187;-71
2021/05/13 05:16:05;;;;;;;;;;;;;;;13.68;78.50;94610.73;1727141;83;20148;-82
2021/05/13 05:18:32;;;;;;;;;;;;;;;13.77;78.36;94611.64;1719842;83;20515;-80
2021/05/13 05:20:59;;;;;;;;;;;;;;;13.84;77.86;94612.61;1693849;83;20194;-72
2021/05/13 05:23:27;;;;;;;;;;;;;;;13.68;77.19;94614.23;1671014;86;20569;-76
2021/05/13 05:25:53;;;;;;;;;;;;;;;13.62;78.34;94603.94;1671378;86;20185;-83
2021/05/13 05:28:20;;;;;;;;;;;;;;;13.64;77.49;94612.20;1671183;86;20173;-72
2021/05/13 05:30:46;;;;;;;;;;;;;;;13.67;78.74;94605.91;1671186;86;20196;-77
2021/05/13 05:33:13;;;;;;;;;;;;;;;13.83;78.69;94598.97;1671047;86;20177;-78
2021/05/13 05:35:40;;;;;;;;;;;;;;;13.93;77.86;94607.79;1670947;86;20530;-73
2021/05/13 05:38:07;;;;;;;;;;;;;;;13.99;77.64;94598.23;1671035;86;20190;-76
2021/05/13 05:40:34;;;;;;;;;;;;;;;13.97;76.94;94597.45;1671148;86;20215;-76
2021/05/13 05:43:00;;;;;;;;;;;;;;;13.94;77.18;94594.95;1670886;86;20530;-73
2021/05/13 05:45:27;;;;;;;;;;;;;;;14.00;77.04;94595.97;1671042;86;20533;-78
2021/05/13 05:48:03;;;;;;;;;;;;;;;13.99;76.18;94596.44;1671234;86;20189;-73
2021/05/13 05:50:35;;;;;;;;;;;;;;;13.98;76.12;94598.67;1642308;86;20185;-76
2021/05/13 05:53:02;;;;;;;;;;;;;;;14.00;77.15;94601.27;1679684;85;20151;-72
2021/05/13 05:55:30;;;;;;;;;;;;;;;14.03;77.26;94603.30;1697780;84;20137;-76
2021/05/13 05:57:57;;;;;;;;;;;;;;;14.03;76.63;94601.97;1706907;84;20228;-77
2021/05/13 06:00:23;;;;;;;;;;;;;;;14.06;76.22;94601.84;1706975;84;20180;-75
2021/05/13 06:02:50;;;;;;;;;;;;;;;14.12;76.43;94605.14;1706732;84;20133;-75
2021/05/13 06:05:17;;;;;;;;;;;;;;;14.14;75.70;94603.27;1706770;84;20188;-75
2021/05/13 06:07:44;;;;;;;;;;;;;;;14.12;75.27;94601.16;1707066;84;20165;-75
2021/05/13 06:10:13;;;;;;;;;;;;;;;14.17;75.74;94608.42;1706919;84;20478;-75
2021/05/13 06:12:41;;;;;;;;;;;;;;;14.21;75.86;94599.36;1707080;84;20167;-75
2021/05/13 06:15:10;;;;;;;;;;;;;;;14.28;74.95;94600.79;1706848;84;20178;-75
2021/05/13 06:17:36;;;;;;;;;;;;;;;14.36;75.36;94601.73;1706905;84;20205;-75
2021/05/13 06:20:05;;;;;;;;;;;;;;;14.48;75.45;94595.83;1706759;84;20132;-75
2021/05/13 06:22:32;;;;;;;;;;;;;;;14.68;74.91;94596.19;1706973;84;20161;-68
2021/05/13 06:24:59;;;;;;;;;;;;;;;14.75;73.88;94589.64;1706792;84;20161;-69
2021/05/13 06:27:26;;;;;;;;;;;;;;;14.96;73.23;94594.31;1706854;84;20164;-73
2021/05/13 06:29:53;;;;;;;;;;;;;;;15.06;72.43;94599.53;1707014;84;20153;-71
2021/05/13 06:32:19;;;;;;;;;;;;;;;15.14;72.19;94591.16;1706798;84;20141;-79
2021/05/13 06:34:45;;;;;;;;;;;;;;;15.28;72.68;94590.45;1706649;84;20291;-73
2021/05/13 06:37:11;;;;;;;;;;;;;;;15.29;70.73;94588.17;1706920;84;20482;-73
2021/05/13 06:39:38;;;;;;;;;;;;;;;15.37;72.35;94587.28;1706978;84;20156;-77
2021/05/13 06:42:05;;;;;;;;;;;;;;;15.30;70.52;94588.58;1707039;84;20199;-80
2021/05/13 06:44:31;;;;;;;;;;;;;;;15.30;70.92;94586.77;1707000;84;20149;-77
2021/05/13 06:46:58;;;;;;;;;;;;;;;15.32;71.10;94584.02;1706912;84;20153;-69
2021/05/13 06:49:24;;;;;;;;;;;;;;;15.45;70.62;94579.78;1706524;84;20145;-76
2021/05/13 06:51:51;;;;;;;;;;;;;;;15.58;70.53;94581.30;1706899;84;20133;-75
2021/05/13 06:54:17;;;;;;;;;;;;;;;15.69;69.75;94574.06;1706853;84;20542;-71
2021/05/13 06:56:44;;;;;;;;;;;;;;;15.79;69.52;94572.64;1695516;84;20150;-77
2021/05/13 06:59:10;;;;;;;;;;;;;;;15.85;69.47;94574.98;1694684;85;20218;-73
2021/05/13 07:01:37;;;;;;;;;;;;;;;16.00;68.97;94574.13;1694609;85;20185;-78
2021/05/13 07:04:04;;;;;;;;;;;;;;;16.28;70.00;94570.34;1725376;83;20520;-76
2021/05/13 07:06:35;;;;;;;;;;;;;;;16.41;68.31;94564.72;1731433;83;20488;-76
2021/05/13 07:09:03;;;;;;;;;;;;;;;16.46;67.52;94561.80;1731528;83;20204;-72
2021/05/13 07:11:29;;;;;;;;;;;;;;;16.60;67.72;94564.02;1731378;83;20179;-76
2021/05/13 07:13:55;;;;;;;;;;;;;;;16.71;67.28;94563.41;1731373;83;20286;-79
2021/05/13 07:16:22;;;;;;;;;;;;;;;16.70;65.95;94553.69;1731484;83;20488;-75
2021/05/13 07:18:48;;;;;;;;;;;;;;;16.80;65.22;94552.70;1731603;83;20159;-77
2021/05/13 07:21:15;;;;;;;;;;;;;;;17.08;67.05;94555.44;1729889;83;20167;-76
2021/05/13 07:23:44;;;;;;;;;;;;;;;17.38;63.36;94553.16;1694683;85;20460;-78
2021/05/13 07:26:11;;;;;;;;;;;;;;;17.36;61.48;94546.20;1694811;85;20162;-77
2021/05/13 07:28:40;;;;;;;;;;;;;;;17.40;60.90;94542.41;1694394;85;20513;-84
2021/05/13 07:31:07;;;;;;;;;;;;;;;17.36;61.90;94545.75;1694679;85;20498;-73
2021/05/13 07:33:34;;;;;;;;;;;;;;;17.27;61.60;94540.98;1694700;85;20162;-74
2021/05/13 07:36:00;;;;;;;;;;;;;;;17.21;61.93;94543.55;1694446;85;20139;-78
2021/05/13 07:38:26;;;;;;;;;;;;;;;17.39;63.04;94543.37;1694776;85;20174;-76
2021/05/13 07:40:53;;;;;;;;;;;;;;;17.40;62.05;94545.92;1694645;85;20155;-75
2021/05/13 07:43:21;;;;;;;;;;;;;;;17.37;57.66;94538.61;1694863;85;20203;-70
2021/05/13 07:45:49;;;;;;;;;;;;;;;17.37;58.29;94543.45;1694848;85;20198;-73
2021/05/13 07:48:15;;;;;;;;;;;;;;;17.22;59.82;94536.41;1694770;84;20159;-74
2021/05/13 07:50:41;;;;;;;;;;;;;;;17.04;61.50;94540.58;1694567;85;20162;-75
2021/05/13 07:53:08;;;;;;;;;;;;;;;17.27;60.82;94531.65;1694764;84;20235;-71
2021/05/13 07:55:36;;;;;;;;;;;;;;;17.50;60.33;94516.88;1694868;84;20162;-74
2021/05/13 07:58:03;;;;;;;;;;;;;;;17.75;59.01;94517.52;1694839;85;20222;-81
2021/05/13 08:00:30;;;;;;;;;;;;;;;18.16;59.89;94511.34;1694811;84;20463;-76
2021/05/13 08:02:56;;;;;;;;;;;;;;;18.24;53.78;94504.16;1694672;85;20558;-80
2021/05/13 08:05:23;;;;;;;;;;;;;;;18.45;51.51;94500.08;1694710;85;20183;-84
2021/05/13 08:07:49;;;;;;;;;;;;;;;18.79;52.12;94502.67;1694820;85;20226;-75
2021/05/13 08:10:16;;;;;;;;;;;;;;;18.81;48.10;94501.25;1712136;82;20167;-71
2021/05/13 08:12:42;;;;;;;;;;;;;;;18.71;49.36;94497.45;1694787;85;20151;-72
2021/05/13 08:15:11;;;;;;;;;;;;;;;18.52;49.14;94500.50;1693919;84;20162;-69
2021/05/13 08:17:39;;;;;;;;;;;;;;;18.41;47.65;94509.23;1693217;85;20164;-67
2021/05/13 08:20:07;;;;;;;;;;;;;;;18.19;47.92;94506.28;1693140;85;20670;-73
2021/05/13 08:22:34;;;;;;;;;;;;;;;18.05;49.62;94508.05;1693267;85;20471;-77
2021/05/13 08:25:03;;;;;;;;;;;;;;;18.03;48.24;94493.09;1693231;85;20163;-77
2021/05/13 08:27:30;;;;;;;;;;;;;;;18.24;48.41;94495.66;1694122;85;20267;-75
2021/05/13 08:29:58;;;;;;;;;;;;;;;18.17;46.50;94494.38;1694690;84;20172;-79
2021/05/13 08:32:25;;;;;;;;;;;;;;;17.94;45.68;94507.87;1694661;85;20500;-72
2021/05/13 08:34:53;;;;;;;;;;;;;;;17.66;46.87;94500.75;1694553;85;20212;-69
2021/05/13 08:37:20;;;;;;;;;;;;;;;17.50;46.68;94502.21;1694180;85;20232;-68
2021/05/13 08:39:46;;;;;;;;;;;;;;;17.62;46.61;94501.44;1694701;83;20154;-67
2021/05/13 08:42:13;;;;;;;;;;;;;;;17.72;48.00;94499.05;1694911;85;20183;-70
2021/05/13 08:44:43;;;;;;;;;;;;;;;17.86;46.54;94500.84;1694700;85;20154;-70
2021/05/13 08:47:10;;;;;;;;;;;;;;;18.14;47.75;94498.11;1694684;85;20154;-68
2021/05/13 08:49:37;;;;;;;;;;;;;;;18.31;48.13;94501.47;1694776;85;20511;-71
2021/05/13 08:52:16;;;;;;;;;;;;;;;18.31;45.30;94494.79;1694654;85;20551;-71
2021/05/13 08:54:59;;;;;;;;;;;;;;;18.26;46.16;94491.08;1694672;84;20174;-70
2021/05/13 08:57:26;;;;;;;;;;;;;;;18.44;46.63;94495.67;1694809;85;20520;-71
2021/05/13 08:59:54;;;;;;;;;;;;;;;18.31;45.79;94482.77;1694683;84;20198;-73
2021/05/13 09:02:21;;;;;;;;;;;;;;;18.40;44.24;94488.84;1694875;85;20234;-73
2021/05/13 09:04:51;;;;;;;;;;;;;;;18.59;47.25;94485.77;1694632;85;20566;-73
2021/05/13 09:07:23;;;;;;;;;;;;;;;18.72;43.42;94475.98;1694481;85;20491;-73
2021/05/13 09:09:59;;;;;;;;;;;;;;;19.09;46.03;94471.27;1694790;85;20158;-73
2021/05/13 09:12:28;;;;;;;;;;;;;;;19.28;42.70;94474.38;1694679;85;20162;-73
2021/05/13 09:15:10;;;;;;;;;;;;;;;19.14;43.01;94482.50;1694794;85;20183;-73
2021/05/13 09:17:38;;;;;;;;;;;;;;;18.93;42.37;94485.70;1694904;84;20165;-73
2021/05/13 09:20:06;;;;;;;;;;;;;;;18.52;43.28;94490.70;1694711;85;20174;-74
2021/05/13 09:22:33;;;;;;;;;;;;;;;18.39;44.70;94485.78;1694875;85;20150;-74
2021/05/13 09:25:04;;;;;;;;;;;;;;;18.45;43.98;94485.88;1694829;85;20564;-74
2021/05/13 09:27:44;;;;;;;;;;;;;;;19.05;46.36;94484.47;1694640;85;20150;-73
2021/05/13 09:30:17;;;;;;;;;;;;;;;19.52;45.14;94484.28;1694763;85;20171;-73
2021/05/13 09:32:47;;;;;;;;;;;;;;;19.36;44.92;94510.79;1694790;85;20139;-73
2021/05/13 09:35:22;;;;;;;;;;;;;;;18.58;45.52;94511.64;1693604;85;20301;-73
2021/05/13 09:37:52;;;;;;;;;;;;;;;18.27;47.11;94524.86;1694689;85;20194;-73
2021/05/13 09:40:24;;;;;;;;;;;;;;;17.77;49.71;94524.10;1694503;84;20150;-73
2021/05/13 09:42:54;;;;;;;;;;;;;;;17.14;49.43;94530.70;1693615;85;20159;-73
2021/05/13 09:45:22;;;;;;;;;;;;;;;16.83;50.90;94526.75;1690255;85;20210;-73
2021/05/13 09:47:48;;;;;;;;;;;;;;;16.07;50.41;94533.38;1669800;85;20166;-73
2021/05/13 09:50:21;;;;;;;;;;;;;;;15.89;51.68;94537.94;1694698;84;20156;-73
2021/05/13 09:52:51;;;;;;;;;;;;;;;15.61;52.88;94529.76;1694830;85;20146;-73
2021/05/13 09:55:27;;;;;;;;;;;;;;;15.46;53.98;94547.41;1686249;84;20503;-73
2021/05/13 09:58:00;;;;;;;;;;;;;;;15.20;54.25;94531.07;1684968;85;20203;-73
2021/05/13 10:00:42;;;;;;;;;;;;;;;15.07;53.59;94537.98;1684864;85;20514;-73
2021/05/13 10:03:12;;;;;;;;;;;;;;;15.11;55.52;94533.73;1684795;85;20476;-72
2021/05/13 10:05:41;;;;;;;;;;;;;;;15.24;54.79;94531.27;1684731;85;20171;-73
2021/05/13 10:08:08;;;;;;;;;;;;;;;15.49;57.14;94517.98;1684582;85;20183;-73
2021/05/13 10:10:35;;;;;;;;;;;;;;;16.17;56.90;94521.25;1684686;85;20139;-73
2021/05/13 10:13:04;;;;;;;;;;;;;;;16.21;54.72;94516.15;1684749;84;20218;-73
2021/05/13 10:15:30;;;;;;;;;;;;;;;16.09;55.26;94520.84;1684704;85;20479;-73
2021/05/13 10:17:59;;;;;;;;;;;;;;;15.91;55.64;94527.22;1684818;85;20186;-73
2021/05/13 10:20:28;;;;;;;;;;;;;;;15.64;55.25;94531.77;1684752;85;20231;-72
2021/05/13 10:22:55;;;;;;;;;;;;;;;15.39;58.01;94538.04;1684775;85;20563;-73
2021/05/13 10:25:30;;;;;;;;;;;;;;;15.37;55.00;94532.80;1684906;85;20200;-72
2021/05/13 10:28:04;;;;;;;;;;;;;;;15.33;55.40;94528.61;1684763;85;20495;-73
2021/05/13 10:30:33;;;;;;;;;;;;;;;15.20;56.74;94527.08;1684801;85;20163;-72
2021/05/13 10:33:09;;;;;;;;;;;;;;;15.23;55.95;94520.27;1684688;85;20131;-72
2021/05/13 10:35:37;;;;;;;;;;;;;;;15.24;56.49;94517.98;1684468;85;20293;-72
2021/05/13 10:38:09;;;;;;;;;;;;;;;15.46;56.30;94513.70;1684780;85;20166;-72
2021/05/13 10:40:50;;;;;;;;;;;;;;;15.78;56.90;94511.09;1684746;85;20507;-72
2021/05/13 10:43:14;;;;;;;;;;;;;;;16.09;58.27;94495.56;1684536;85;20227;-73
2021/05/13 10:45:45;;;;;;;;;;;;;;;17.02;59.89;94486.98;1684695;84;20523;-73
2021/05/13 10:48:28;;;;;;;;;;;;;;;17.99;56.54;94491.08;1684434;85;20231;-73
2021/05/13 10:51:04;;;;;;;;;;;;;;;18.33;47.83;94479.52;1684212;85;20170;-73
2021/05/13 10:53:45;;;;;;;;;;;;;;;18.37;46.19;94489.91;1684925;85;20228;-73
2021/05/13 10:56:32;;;;;;;;;;;;;;;18.10;46.34;94479.23;1684847;85;20167;-73
2021/05/13 10:59:11;;;;;;;;;;;;;;;17.77;46.38;94483.59;1684927;85;20135;-72
2021/05/13 11:01:52;;;;;;;;;;;;;;;17.37;46.83;94483.95;1684513;85;20175;-73
2021/05/13 11:04:30;;;;;;;;;;;;;;;17.28;47.26;94493.36;1684730;85;20226;-73
2021/05/13 11:07:20;;;;;;;;;;;;;;;17.38;47.74;94490.98;1684283;85;20151;-73
2021/05/13 11:09:53;;;;;;;;;;;;;;;17.52;48.03;94493.64;1684461;85;20170;-73
2021/05/13 11:12:41;;;;;;;;;;;;;;;17.91;46.90;94490.24;1684789;85;20223;-73
2021/05/13 11:17:52;;;;;;;;;;;;;;;18.58;45.80;94484.08;1685095;85;20156;-74
2021/05/13 11:20:36;;;;;;;;;;;;;;;19.07;41.81;94484.73;1684881;85;20472;-74
2021/05/13 11:23:12;;;;;;;;;;;;;;;19.74;40.88;94472.45;1684883;85;20567;-74
2021/05/13 11:25:41;;;;;;;;;;;;;;;19.93;40.15;94476.45;1684802;84;20447;-74
2021/05/13 11:28:22;;;;;;;;;;;;;;;19.85;45.11;94475.19;1684962;85;20131;-73
2021/05/13 11:30:50;;;;;;;;;;;;;;;19.77;43.26;94482.08;1685117;85;20183;-73
2021/05/13 11:33:17;;;;;;;;;;;;;;;19.52;45.20;94481.61;1684910;85;20163;-73
2021/05/13 11:35:44;;;;;;;;;;;;;;;19.43;43.41;94492.01;1684960;85;20171;-73
2021/05/13 11:38:19;;;;;;;;;;;;;;;18.92;41.08;94500.02;1684847;85;20483;-73
2021/05/13 11:40:47;;;;;;;;;;;;;;;18.67;43.49;94502.17;1684970;85;20159;-73
2021/05/13 11:43:32;;;;;;;;;;;;;;;18.60;43.23;94500.86;1684864;85;20503;-73
2021/05/13 11:46:01;;;;;;;;;;;;;;;18.41;43.27;94499.05;1684535;84;20167;-73
2021/05/13 11:48:33;;;;;;;;;;;;;;;18.48;43.37;94505.69;1684359;85;20195;-73
2021/05/13 11:51:05;;;;;;;;;;;;;;;18.66;45.12;94495.58;1684863;85;20151;-73
2021/05/13 11:53:32;;;;;;;;;;;;;;;18.93;43.35;94498.22;1685081;85;20188;-73
2021/05/13 11:56:00;;;;;;;;;;;;;;;19.15;41.90;94492.22;1693161;84;20186;-73
2021/05/13 11:58:47;;;;;;;;;;;;;;;19.65;42.20;94488.66;1694825;84;20178;-73
2021/05/13 12:01:37;;;;;;;;;;;;;;;20.33;40.86;94485.07;1694742;85;20190;-73
2021/05/13 12:04:12;;;;;;;;;;;;;;;20.78;39.35;94479.92;1694820;85;20170;-73
2021/05/13 12:06:58;;;;;;;;;;;;;;;20.30;38.96;94490.17;1694746;85;20229;-73
2021/05/13 12:09:26;;;;;;;;;;;;;;;20.24;39.79;94488.45;1694370;85;20138;-73
2021/05/13 12:11:53;;;;;;;;;;;;;;;20.09;38.95;94480.58;1694693;84;20499;-74
2021/05/13 12:14:31;;;;;;;;;;;;;;;20.15;39.88;94482.43;1694915;85;20170;-73
2021/05/13 12:16:56;;;;;;;;;;;;;;;20.53;40.75;94476.88;1693762;84;20166;-74
2021/05/13 12:19:23;;;;;;;;;;;;;;;21.38;39.27;94473.94;1694952;84;20171;-74
2021/05/13 12:21:56;;;;;;;;;;;;;;;21.80;39.50;94460.30;1694453;85;20250;-74
2021/05/13 12:24:29;;;;;;;;;;;;;;;21.37;35.11;94466.39;1694146;85;20149;-74
2021/05/13 12:26:56;;;;;;;;;;;;;;;21.60;36.12;94457.88;1694178;85;20166;-74
2021/05/13 12:29:23;;;;;;;;;;;;;;;21.03;36.62;94464.63;1694537;85;20163;-74
2021/05/13 12:31:50;;;;;;;;;;;;;;;20.93;36.84;94464.48;1694988;85;20195;-74
2021/05/13 12:34:39;;;;;;;;;;;;;;;20.92;37.56;94459.62;1694771;85;20250;-74
2021/05/13 12:37:06;;;;;;;;;;;;;;;21.15;37.77;94457.83;1694605;84;20138;-74
2021/05/13 12:39:38;;;;;;;;;;;;;;;20.88;37.28;94458.13;1694783;84;20163;-74
2021/05/13 12:42:25;;;;;;;;;;;;;;;21.35;37.71;94461.63;1694831;85;20135;-74
2021/05/13 12:45:14;;;;;;;;;;;;;;;21.76;36.73;94441.87;1694722;85;20139;-74
2021/05/13 12:47:41;;;;;;;;;;;;;;;22.33;31.77;94440.79;1694873;85;20151;-74
2021/05/13 12:50:09;;;;;;;;;;;;;;;22.89;33.45;94439.17;1694721;85;20237;-74
2021/05/13 12:52:35;;;;;;;;;;;;;;;23.25;30.26;94443.73;1694730;84;20134;-74
2021/05/13 12:55:14;;;;;;;;;;;;;;;23.69;29.01;94443.53;1693452;84;20147;-74
2021/05/13 12:57:42;;;;;;;;;;;;;;;24.02;28.92;94442.88;1689358;85;20221;-74
2021/05/13 13:00:10;;;;;;;;;;;;;;;24.22;27.67;94450.48;1690500;85;20159;-74
2021/05/13 13:02:37;;;;;;;;;;;;;;;24.71;28.10;94454.12;1690468;85;20209;-74
2021/05/13 13:05:06;;;;;;;;;;;;;;;24.45;28.51;94444.36;1690586;85;20539;-74